Time;durP1;ratioP1;P1;durP2;ratioP2;P2;SDS_P1;SDS_P2;PMS_P1;PMS_P2;Temp;Humidity;BMP_temperature;BMP_pressure;BME280_temperature;BME280_humidity;BME280_pressure;Samples;Min_cycle;Max_cycle;Signal;HPM_P1;HPM_P2
2022/03/01 00:02:20;;;;;;;198.57;72.20;;;-1.30;99.90;;;;;;10362888;28;20203;-79
2022/03/01 00:07:42;;;;;;;183.37;72.80;;;-1.40;99.90;;;;;;10361649;28;20221;-76
2022/03/01 00:13:04;;;;;;;185.10;74.63;;;-1.40;99.90;;;;;;10362238;28;20527;-75
2022/03/01 00:18:26;;;;;;;192.73;74.57;;;-1.40;99.90;;;;;;10402010;28;20522;-75
2022/03/01 00:23:48;;;;;;;189.30;72.60;;;-1.60;99.90;;;;;;10374530;28;20212;-77
2022/03/01 00:29:10;;;;;;;192.30;73.87;;;-1.60;99.90;;;;;;10361784;28;20190;-77
2022/03/01 00:34:32;;;;;;;217.17;79.77;;;-1.70;99.90;;;;;;10361415;28;20228;-77
2022/03/01 00:39:54;;;;;;;215.33;81.67;;;-1.70;99.90;;;;;;10361286;28;20197;-74
2022/03/01 00:45:16;;;;;;;204.17;78.63;;;-1.70;99.90;;;;;;10374204;28;20204;-75
2022/03/01 00:50:38;;;;;;;200.37;77.67;;;-1.70;99.90;;;;;;10356621;28;20516;-74
2022/03/01 00:56:04;;;;;;;191.00;73.27;;;-1.60;99.90;;;;;;10359593;28;20200;-74
2022/03/01 01:01:25;;;;;;;167.10;68.80;;;-1.70;99.90;;;;;;10359108;28;20197;-76
2022/03/01 01:06:48;;;;;;;192.50;73.13;;;-1.70;99.90;;;;;;10359274;28;20194;-80
2022/03/01 01:12:10;;;;;;;176.67;73.40;;;-1.80;99.90;;;;;;10359149;28;20296;-79
2022/03/01 01:17:32;;;;;;;178.67;72.30;;;-1.80;99.90;;;;;;10391943;28;20199;-78
2022/03/01 01:22:53;;;;;;;189.03;73.90;;;-1.80;99.90;;;;;;10399950;28;20232;-80
2022/03/01 01:28:15;;;;;;;164.10;66.37;;;-1.80;99.90;;;;;;10399236;28;20262;-77
2022/03/01 01:33:37;;;;;;;150.13;62.67;;;-1.90;99.90;;;;;;10399905;28;20548;-80
2022/03/01 01:39:00;;;;;;;153.20;62.67;;;-2.00;99.90;;;;;;10399707;28;20217;-77
2022/03/01 01:44:22;;;;;;;167.67;66.50;;;-2.00;99.90;;;;;;10398231;28;20204;-82
2022/03/01 01:49:43;;;;;;;166.60;64.43;;;-2.00;99.90;;;;;;10390203;28;20200;-74
2022/03/01 01:55:07;;;;;;;167.63;64.83;;;-2.10;99.90;;;;;;10358403;28;20575;-84
2022/03/01 02:00:29;;;;;;;165.23;66.13;;;-2.20;99.90;;;;;;10358207;28;20432;-77
2022/03/01 02:05:51;;;;;;;162.47;65.30;;;-2.20;99.90;;;;;;10356852;28;20408;-78
2022/03/01 02:11:13;;;;;;;160.43;63.80;;;-2.20;99.90;;;;;;10356694;28;20221;-76
2022/03/01 02:16:36;;;;;;;160.50;62.87;;;-2.30;99.90;;;;;;10383090;28;20276;-76
2022/03/01 02:21:58;;;;;;;169.73;65.83;;;-2.40;99.90;;;;;;10396338;28;20284;-75
2022/03/01 02:27:21;;;;;;;163.80;63.37;;;-2.40;99.90;;;;;;10397817;28;20203;-76
2022/03/01 02:32:43;;;;;;;172.13;63.63;;;-2.40;99.90;;;;;;10382806;28;20221;-76
2022/03/01 02:38:06;;;;;;;152.47;59.00;;;-2.40;99.90;;;;;;10397280;28;20196;-75
2022/03/01 02:43:28;;;;;;;151.17;59.17;;;-2.40;99.90;;;;;;10396059;28;20379;-75
2022/03/01 02:48:50;;;;;;;149.47;57.93;;;-2.50;99.90;;;;;;10395057;28;20357;-75
2022/03/01 02:54:14;;;;;;;145.93;58.37;;;-2.50;99.90;;;;;;10371224;28;20316;-73
2022/03/01 02:59:36;;;;;;;133.93;55.17;;;-2.60;99.90;;;;;;10355947;28;20213;-74
2022/03/01 03:04:57;;;;;;;134.33;54.63;;;-2.60;99.90;;;;;;10355662;28;20197;-78
2022/03/01 03:10:19;;;;;;;129.10;52.37;;;-2.60;99.90;;;;;;10355676;28;20299;-77
2022/03/01 03:15:41;;;;;;;118.57;51.37;;;-2.60;99.90;;;;;;10375421;28;20204;-76
2022/03/01 03:21:04;;;;;;;113.87;49.57;;;-2.60;99.90;;;;;;10395528;28;20205;-73
2022/03/01 03:26:26;;;;;;;121.07;51.70;;;-2.70;99.90;;;;;;10394891;28;20206;-76
2022/03/01 03:31:49;;;;;;;129.70;51.87;;;-2.70;99.90;;;;;;10394520;28;20535;-77
2022/03/01 03:37:11;;;;;;;126.03;54.00;;;-2.80;99.90;;;;;;10394916;28;20196;-75
2022/03/01 03:42:33;;;;;;;130.87;53.60;;;-2.90;99.90;;;;;;10394472;28;20490;-77
2022/03/01 03:47:58;;;;;;;121.80;53.43;;;-2.90;99.90;;;;;;10393942;28;20196;-76
2022/03/01 03:53:20;;;;;;;136.90;53.50;;;-2.90;99.90;;;;;;10358101;28;20307;-76
2022/03/01 03:58:42;;;;;;;129.47;50.53;;;-2.90;99.90;;;;;;10367932;28;20540;-85
2022/03/01 04:04:04;;;;;;;113.43;48.37;;;-2.80;99.90;;;;;;10353890;28;20260;-84
2022/03/01 04:09:26;;;;;;;116.57;47.53;;;-2.80;99.90;;;;;;10353550;28;20199;-76
2022/03/01 04:14:49;;;;;;;124.07;48.93;;;-2.90;99.90;;;;;;10370467;28;20232;-77
2022/03/01 04:20:11;;;;;;;111.73;47.23;;;-3.00;99.90;;;;;;10394736;28;20235;-76
2022/03/01 04:25:34;;;;;;;113.10;48.37;;;-3.00;99.90;;;;;;10393896;28;20201;-81
2022/03/01 04:30:55;;;;;;;131.93;51.43;;;-3.00;99.90;;;;;;10402654;28;20382;-81
2022/03/01 04:36:17;;;;;;;121.80;50.47;;;-2.90;99.90;;;;;;10401970;28;20196;-84
2022/03/01 04:41:39;;;;;;;118.60;49.97;;;-3.00;99.90;;;;;;10387216;28;20277;-77
2022/03/01 04:47:03;;;;;;;115.80;49.83;;;-3.00;99.90;;;;;;10400213;28;20195;-75
2022/03/01 04:52:25;;;;;;;111.50;47.87;;;-3.00;99.90;;;;;;10361939;28;20569;-79
2022/03/01 04:57:47;;;;;;;109.67;48.13;;;-3.10;99.90;;;;;;10360712;28;20220;-78
2022/03/01 05:03:09;;;;;;;118.80;46.73;;;-3.10;99.90;;;;;;10360559;28;20198;-83
2022/03/01 05:08:31;;;;;;;122.50;47.60;;;-3.10;99.90;;;;;;10360166;28;20197;-75
2022/03/01 05:13:53;;;;;;;123.20;48.67;;;-3.10;99.90;;;;;;10368979;28;20445;-76
2022/03/01 05:19:15;;;;;;;125.47;52.33;;;-3.20;99.90;;;;;;10400074;28;20553;-76
2022/03/01 05:24:36;;;;;;;127.80;52.07;;;-3.20;99.90;;;;;;10398708;28;20230;-76
2022/03/01 05:29:58;;;;;;;134.20;52.37;;;-3.20;99.90;;;;;;10398407;28;20226;-74
2022/03/01 05:35:24;;;;;;;132.03;51.70;;;-3.20;99.90;;;;;;10399346;28;20229;-74
2022/03/01 05:40:46;;;;;;;122.77;50.00;;;-3.10;99.90;;;;;;10398931;28;20202;-78
2022/03/01 05:46:08;;;;;;;115.87;50.50;;;-3.00;99.90;;;;;;10398605;28;20494;-76
2022/03/01 05:51:29;;;;;;;113.73;46.37;;;-3.00;99.90;;;;;;10375065;28;20245;-75
2022/03/01 05:56:51;;;;;;;101.90;46.67;;;-3.00;99.90;;;;;;10358192;28;20371;-81
2022/03/01 06:02:13;;;;;;;121.40;51.20;;;-3.10;99.90;;;;;;10358212;28;20192;-76
2022/03/01 06:07:35;;;;;;;118.67;52.10;;;-2.90;99.90;;;;;;10357064;28;20387;-77
2022/03/01 06:12:58;;;;;;;124.73;55.80;;;-2.80;99.90;;;;;;10361752;28;20219;-76
2022/03/01 06:18:21;;;;;;;135.60;58.17;;;-2.80;99.90;;;;;;10396648;28;20502;-75
2022/03/01 06:23:43;;;;;;;167.07;67.77;;;-2.70;99.90;;;;;;10396637;28;20405;-75
2022/03/01 06:29:05;;;;;;;266.43;103.07;;;-2.60;99.90;;;;;;10397822;28;20216;-80
2022/03/01 06:34:27;;;;;;;376.97;149.73;;;-2.40;99.90;;;;;;10396693;28;20225;-76
2022/03/01 06:39:50;;;;;;;361.67;143.73;;;-2.20;99.90;;;;;;10396514;28;20223;-77
2022/03/01 06:45:12;;;;;;;308.63;129.03;;;-2.10;99.90;;;;;;10382403;28;20204;-84
2022/03/01 06:50:36;;;;;;;271.33;113.40;;;;;;;;;;10381846;28;20272;-77
2022/03/01 06:55:58;;;;;;;264.83;105.47;;;;;;;;;;10354851;28;20256;-86
2022/03/01 07:01:20;;;;;;;213.83;93.73;;;2.30;99.90;;;;;;10355423;28;20393;-81
2022/03/01 07:06:42;;;;;;;205.43;90.93;;;2.50;99.90;;;;;;10356485;28;20234;-84
2022/03/01 07:12:05;;;;;;;213.60;86.67;;;;;;;;;;10355823;28;20219;-85
2022/03/01 07:17:28;;;;;;;172.67;71.53;;;3.50;99.90;;;;;;10354951;28;20284;-77
2022/03/01 07:22:50;;;;;;;136.00;60.00;;;4.50;99.00;;;;;;10389623;28;20203;-75
2022/03/01 07:28:12;;;;;;;102.63;50.57;;;4.70;98.20;;;;;;10396324;28;20207;-85
2022/03/01 07:33:34;;;;;;;90.73;47.87;;;5.30;95.10;;;;;;10395300;28;20538;-79
2022/03/01 07:38:56;;;;;;;89.32;46.53;;;6.10;91.30;;;;;;10394896;28;20224;-82
2022/03/01 07:44:19;;;;;;;65.93;34.45;;;6.80;79.40;;;;;;10394931;28;20196;-79
2022/03/01 07:49:43;;;;;;;54.67;29.73;;;7.40;75.10;;;;;;10386892;28;20211;-79
2022/03/01 07:55:07;;;;;;;50.97;28.75;;;8.40;64.20;;;;;;10353177;28;20248;-81
2022/03/01 08:00:29;;;;;;;54.58;28.60;;;9.00;53.30;;;;;;10362833;28;20191;-84
2022/03/01 08:05:51;;;;;;;49.42;25.20;;;9.40;50.10;;;;;;10362342;28;20209;-82
2022/03/01 08:11:13;;;;;;;48.95;26.92;;;10.10;44.80;;;;;;10347917;28;20400;-82
2022/03/01 08:16:36;;;;;;;37.47;21.88;;;10.50;41.50;;;;;;10400061;28;20221;-79
2022/03/01 08:21:58;;;;;;;31.13;17.50;;;11.20;38.20;;;;;;10379038;28;20220;-80
2022/03/01 08:27:20;;;;;;;21.88;14.02;;;11.70;34.30;;;;;;10389616;28;20190;-80
2022/03/01 08:32:42;;;;;;;23.63;14.45;;;12.10;31.20;;;;;;10397114;28;20431;-80
2022/03/01 08:38:05;;;;;;;42.25;29.58;;;12.10;30.80;;;;;;10380643;28;20197;-79
2022/03/01 08:43:27;;;;;;;27.88;16.67;;;12.60;28.90;;;;;;10370294;28;20216;-78
2022/03/01 08:48:53;;;;;;;22.85;14.60;;;13.00;27.70;;;;;;10357747;28;20197;-80
2022/03/01 08:54:17;;;;;;;16.63;12.68;;;13.00;26.20;;;;;;10381430;28;20244;-78
2022/03/01 08:59:39;;;;;;;19.90;12.38;;;13.10;26.20;;;;;;10396035;28;20203;-78
2022/03/01 09:05:03;;;;;;;15.18;10.60;;;13.30;26.10;;;;;;10380873;28;20259;-82
2022/03/01 09:10:24;;;;;;;20.98;11.93;;;13.70;25.00;;;;;;10395765;28;20205;-77
2022/03/01 09:15:46;;;;;;;22.10;11.75;;;13.40;24.90;;;;;;10389730;28;20232;-80
2022/03/01 09:21:09;;;;;;;26.10;12.73;;;13.50;25.00;;;;;;10364723;28;20256;-80
2022/03/01 09:26:33;;;;;;;18.02;10.65;;;13.10;24.60;;;;;;10365621;28;20421;-77
2022/03/01 09:31:57;;;;;;;13.95;9.73;;;12.90;25.00;;;;;;10394304;28;20217;-77
2022/03/01 09:37:19;;;;;;;17.27;9.98;;;12.80;24.50;;;;;;10378964;28;20244;-77
2022/03/01 09:42:42;;;;;;;13.57;7.85;;;12.80;24.60;;;;;;10394418;28;20209;-78
2022/03/01 09:48:04;;;;;;;13.73;7.57;;;12.80;24.20;;;;;;10393847;28;20247;-82
2022/03/01 09:53:29;;;;;;;16.73;7.38;;;13.50;23.70;;;;;;10353801;28;20292;-79
2022/03/01 09:58:51;;;;;;;9.98;6.32;;;13.70;22.90;;;;;;10336253;28;20269;-81
2022/03/01 10:04:15;;;;;;;19.77;9.07;;;14.00;22.50;;;;;;10336753;28;20198;-79
2022/03/01 10:09:41;;;;;;;16.25;9.18;;;14.40;21.80;;;;;;10358517;28;20189;-81
2022/03/01 10:15:09;;;;;;;13.60;6.45;;;14.70;20.70;;;;;;10375459;28;20275;-78
2022/03/01 10:21:02;;;;;;;14.68;7.85;;;14.80;20.00;;;;;;10387655;28;20221;-78
2022/03/01 10:26:43;;;;;;;31.17;16.88;;;14.70;19.80;;;;;;10391364;28;20208;-78
2022/03/01 10:32:39;;;;;;;13.75;6.20;;;14.10;20.50;;;;;;10392272;28;20272;-78
2022/03/01 10:38:05;;;;;;;14.50;8.00;;;15.10;19.70;;;;;;10391007;28;20239;-79
2022/03/01 10:43:28;;;;;;;11.77;6.40;;;15.00;19.40;;;;;;10377072;28;20543;-77
2022/03/01 10:49:12;;;;;;;9.10;6.05;;;15.80;19.10;;;;;;10388848;28;20221;-82
2022/03/01 10:54:35;;;;;;;8.20;5.07;;;15.90;18.90;;;;;;10350163;28;20269;-82
2022/03/01 10:59:57;;;;;;;8.88;5.72;;;15.80;18.70;;;;;;10351717;28;20245;-80
2022/03/01 11:05:22;;;;;;;9.93;5.82;;;16.30;18.10;;;;;;10350068;28;20202;-78
2022/03/01 11:11:22;;;;;;;13.63;9.75;;;16.20;18.10;;;;;;10359396;28;20221;-82
2022/03/01 11:16:54;;;;;;;11.65;6.85;;;;;;;;;;10356408;28;20229;-81
2022/03/01 11:22:22;;;;;;;10.10;6.53;;;;;;;;;;10359846;28;20256;-79
2022/03/01 11:27:45;;;;;;;9.57;6.22;;;;;;;;;;10351583;28;20255;-82
2022/03/01 11:33:36;;;;;;;9.68;5.60;;;17.50;16.40;;;;;;10349567;28;20271;-80
2022/03/01 11:39:24;;;;;;;9.90;5.80;;;17.30;16.80;;;;;;10368190;28;20202;-77
2022/03/01 11:45:10;;;;;;;11.32;7.68;;;17.60;16.40;;;;;;10390582;28;20243;-79
2022/03/01 11:50:33;;;;;;;9.30;5.65;;;17.10;16.50;;;;;;10383836;28;20205;-79
2022/03/01 11:56:15;;;;;;;8.25;5.40;;;16.80;16.90;;;;;;10368056;28;20233;-77
2022/03/01 12:01:38;;;;;;;12.07;6.72;;;17.30;16.90;;;;;;10357538;28;20197;-85
2022/03/01 12:07:22;;;;;;;11.27;6.68;;;17.60;16.40;;;;;;10356592;28;20268;-78
2022/03/01 12:12:46;;;;;;;17.38;9.57;;;17.00;16.50;;;;;;10370315;28;20268;-80
2022/03/01 12:18:15;;;;;;;11.65;7.78;;;17.20;16.70;;;;;;10351155;28;20466;-81
2022/03/01 12:23:40;;;;;;;13.13;7.30;;;17.50;16.30;;;;;;10320705;28;20205;-77
2022/03/01 12:29:02;;;;;;;11.23;6.97;;;17.50;16.00;;;;;;10347798;28;20429;-79
2022/03/01 12:34:32;;;;;;;9.50;5.88;;;17.50;16.00;;;;;;10324509;28;20237;-78
2022/03/01 12:40:28;;;;;;;13.63;8.25;;;17.30;16.40;;;;;;10315280;28;20245;-80
2022/03/01 12:45:50;;;;;;;11.75;7.15;;;17.30;16.60;;;;;;10335671;28;20203;-82
2022/03/01 12:51:32;;;;;;;14.82;8.60;;;17.60;16.40;;;;;;10315638;28;20296;-82
2022/03/01 12:56:59;;;;;;;12.30;6.55;;;16.90;16.50;;;;;;10301346;28;20214;-77
2022/03/01 13:02:56;;;;;;;11.77;7.22;;;17.50;16.80;;;;;;10304871;28;20213;-77
2022/03/01 13:08:18;;;;;;;12.90;7.07;;;17.40;16.40;;;;;;10316321;28;20396;-76
2022/03/01 13:13:43;;;;;;;10.73;6.60;;;17.70;16.30;;;;;;10334231;28;20289;-78
2022/03/01 13:19:33;;;;;;;13.18;6.60;;;17.50;16.30;;;;;;10325282;28;20265;-77
2022/03/01 13:25:14;;;;;;;17.08;9.35;;;16.90;17.20;;;;;;10350384;28;20225;-81
2022/03/01 13:30:35;;;;;;;16.58;9.48;;;16.40;16.90;;;;;;10331715;28;20206;-78
2022/03/01 13:36:17;;;;;;;12.55;6.93;;;16.50;17.30;;;;;;10340742;28;20234;-78
2022/03/01 13:41:43;;;;;;;10.68;6.65;;;16.60;16.60;;;;;;10356160;28;20506;-77
2022/03/01 13:47:19;;;;;;;14.82;8.52;;;16.50;16.90;;;;;;10332507;28;20243;-77
2022/03/01 13:52:44;;;;;;;12.27;5.75;;;16.40;16.70;;;;;;10329748;28;20248;-78
2022/03/01 13:58:10;;;;;;;10.45;6.28;;;16.00;17.10;;;;;;10341266;28;20207;-87
2022/03/01 14:04:02;;;;;;;12.65;7.57;;;16.10;17.10;;;;;;10332250;28;20204;-82
2022/03/01 14:09:52;;;;;;;11.27;7.32;;;15.50;17.20;;;;;;10326752;28;20263;-81
2022/03/01 14:15:15;;;;;;;12.40;5.68;;;14.90;17.90;;;;;;10318505;28;20274;-77
2022/03/01 14:20:37;;;;;;;24.95;12.55;;;15.00;17.80;;;;;;10341663;28;20258;-79
2022/03/01 14:26:00;;;;;;;11.80;6.85;;;14.10;17.90;;;;;;10312223;28;20196;-83
2022/03/01 14:36:29;;;;;;;7.63;4.93;;;11.60;20.30;;;;;;10567838;27;20577;-76
2022/03/01 14:41:51;;;;;;;12.47;6.83;;;10.80;21.40;;;;;;10562768;28;20227;-77
2022/03/01 14:47:13;;;;;;;10.97;7.07;;;;;;;;;;10560180;28;20430;-77
2022/03/01 14:52:55;;;;;;;12.33;7.13;;;9.60;23.00;;;;;;10574126;28;20293;-76
2022/03/01 14:58:36;;;;;;;15.03;7.97;;;9.30;24.00;;;;;;10567819;28;20203;-79
2022/03/01 15:03:58;;;;;;;20.47;10.43;;;8.90;24.60;;;;;;10554493;28;20284;-75
2022/03/01 15:09:20;;;;;;;25.70;13.90;;;8.70;25.50;;;;;;10534540;28;20215;-77
2022/03/01 15:14:42;;;;;;;22.53;11.17;;;8.40;25.70;;;;;;10564226;28;20262;-79
2022/03/01 15:20:06;;;;;;;17.13;9.70;;;8.40;26.40;;;;;;10500218;28;20270;-75
2022/03/01 15:25:29;;;;;;;20.63;9.53;;;8.10;26.40;;;;;;10463416;28;20230;-77
2022/03/01 15:30:53;;;;;;;12.67;6.20;;;8.00;27.20;;;;;;10477502;28;20198;-76
2022/03/01 15:36:15;;;;;;;18.87;9.43;;;7.90;27.30;;;;;;10462915;28;20248;-76
2022/03/01 15:41:56;;;;;;;19.03;9.90;;;7.70;27.70;;;;;;10435438;28;20552;-77
2022/03/01 15:47:19;;;;;;;32.90;15.27;;;7.50;28.20;;;;;;10438809;28;20291;-77
2022/03/01 15:52:44;;;;;;;32.00;15.63;;;7.30;28.60;;;;;;10434639;28;20308;-76
2022/03/01 15:58:25;;;;;;;30.33;17.37;;;7.20;29.40;;;;;;10425594;28;20211;-76
2022/03/01 16:03:48;;;;;;;39.80;22.37;;;7.00;30.00;;;;;;10422384;28;20468;-82
2022/03/01 16:09:10;;;;;;;47.05;25.55;;;6.80;30.90;;;;;;10425282;28;20447;-77
2022/03/01 16:14:34;;;;;;;47.50;21.93;;;6.60;33.60;;;;;;10403875;28;20214;-80
2022/03/01 16:19:56;;;;;;;47.03;21.80;;;6.40;38.30;;;;;;10435483;28;20201;-79
2022/03/01 16:25:19;;;;;;;38.13;19.13;;;6.10;44.20;;;;;;10441144;28;20261;-78
2022/03/01 16:31:03;;;;;;;58.80;24.80;;;5.90;53.60;;;;;;10436836;28;20212;-82
2022/03/01 16:36:44;;;;;;;64.47;26.27;;;5.60;56.50;;;;;;10436800;28;20210;-83
2022/03/01 16:42:25;;;;;;;49.97;25.17;;;5.30;68.30;;;;;;10438823;28;20214;-81
2022/03/01 16:48:07;;;;;;;53.87;24.57;;;4.90;71.90;;;;;;10439769;28;20263;-80
2022/03/01 16:53:30;;;;;;;51.43;23.90;;;4.60;82.10;;;;;;10424817;28;20226;-77
2022/03/01 16:59:11;;;;;;;52.27;25.03;;;4.50;88.40;;;;;;10438802;28;20507;-82
2022/03/01 17:04:33;;;;;;;62.23;28.47;;;4.40;88.80;;;;;;10424634;28;20238;-80
2022/03/01 17:09:56;;;;;;;92.13;39.80;;;4.20;93.40;;;;;;10439216;28;20198;-80
2022/03/01 17:15:19;;;;;;;105.63;45.40;;;4.20;93.50;;;;;;10428354;28;20278;-78
2022/03/01 17:20:41;;;;;;;105.60;49.00;;;3.80;96.20;;;;;;10422430;28;20200;-80
2022/03/01 17:26:23;;;;;;;138.27;59.90;;;3.50;99.10;;;;;;10438565;28;20214;-78
2022/03/01 17:31:44;;;;;;;140.17;60.53;;;3.40;99.50;;;;;;10437696;28;20235;-77
2022/03/01 17:37:25;;;;;;;145.60;60.87;;;3.40;99.90;;;;;;10438279;28;20510;-78
2022/03/01 17:42:48;;;;;;;155.40;63.60;;;3.20;99.90;;;;;;10438098;28;20195;-80
2022/03/01 17:48:29;;;;;;;190.10;82.50;;;2.90;99.90;;;;;;10438940;28;20250;-78
2022/03/01 17:53:51;;;;;;;202.37;83.53;;;2.70;99.90;;;;;;10395940;28;20306;-77
2022/03/01 17:59:13;;;;;;;211.83;90.50;;;2.60;99.90;;;;;;10396968;28;20386;-78
2022/03/01 18:04:35;;;;;;;202.37;92.63;;;2.70;99.90;;;;;;10395613;28;20200;-80
2022/03/01 18:10:16;;;;;;;240.70;105.27;;;2.70;99.90;;;;;;10403637;28;20235;-77
2022/03/01 18:15:39;;;;;;;265.63;117.00;;;2.60;99.90;;;;;;10424577;28;20230;-78
2022/03/01 18:21:20;;;;;;;359.27;145.60;;;2.60;99.90;;;;;;10426283;28;20249;-80
2022/03/01 18:26:43;;;;;;;395.67;160.27;;;2.50;99.90;;;;;;10436979;28;20195;-80
2022/03/01 18:32:07;;;;;;;467.57;185.20;;;2.30;99.90;;;;;;10436444;28;20302;-81
2022/03/01 18:37:29;;;;;;;462.20;183.97;;;2.20;99.90;;;;;;10436727;28;20199;-79
2022/03/01 18:42:51;;;;;;;408.97;164.57;;;2.10;99.90;;;;;;10466963;28;20196;-78
2022/03/01 18:48:32;;;;;;;272.40;115.60;;;2.10;99.90;;;;;;10477731;28;20229;-77
2022/03/01 18:53:54;;;;;;;210.53;91.43;;;2.00;99.90;;;;;;10394463;28;20232;-78
2022/03/01 18:59:35;;;;;;;200.10;85.47;;;1.90;99.90;;;;;;10395021;28;20211;-77
2022/03/01 19:05:17;;;;;;;197.60;86.23;;;1.90;99.90;;;;;;10394354;28;20265;-77
2022/03/01 19:10:40;;;;;;;223.73;94.73;;;1.80;99.90;;;;;;10407949;28;20363;-77
2022/03/01 19:16:21;;;;;;;254.77;100.10;;;1.70;99.90;;;;;;10420161;28;20237;-78
2022/03/01 19:21:43;;;;;;;242.20;103.33;;;1.60;99.90;;;;;;10437359;28;20202;-77
2022/03/01 19:27:25;;;;;;;258.20;104.97;;;1.60;99.90;;;;;;10443408;28;20253;-78
2022/03/01 19:33:08;;;;;;;273.93;113.77;;;1.40;99.90;;;;;;10442880;28;20309;-76
2022/03/01 19:38:31;;;;;;;256.00;108.40;;;1.30;99.90;;;;;;10442201;28;20252;-76
2022/03/01 19:43:53;;;;;;;261.17;106.80;;;1.20;99.90;;;;;;10442911;28;20441;-77
2022/03/01 19:49:16;;;;;;;231.97;96.77;;;1.10;99.90;;;;;;10441339;28;20197;-78
2022/03/01 19:54:38;;;;;;;215.57;91.07;;;1.10;99.90;;;;;;10442494;28;20225;-77
2022/03/01 20:00:07;;;;;;;189.20;75.63;;;1.00;99.90;;;;;;10441396;28;20220;-78
2022/03/01 20:05:52;;;;;;;176.67;73.43;;;0.90;99.90;;;;;;10441957;28;20435;-77
2022/03/01 20:11:33;;;;;;;189.53;78.47;;;0.90;99.90;;;;;;10441543;28;20245;-77
2022/03/01 20:16:56;;;;;;;201.37;83.17;;;0.70;99.90;;;;;;10440136;28;20224;-76
2022/03/01 20:22:37;;;;;;;217.73;89.53;;;0.70;99.90;;;;;;10410849;28;20222;-76
2022/03/01 20:28:13;;;;;;;228.80;94.97;;;0.60;99.90;;;;;;10400005;28;20199;-76
2022/03/01 20:33:35;;;;;;;218.63;96.73;;;0.60;99.90;;;;;;10398704;28;20245;-77
2022/03/01 20:38:57;;;;;;;198.27;86.10;;;0.50;99.90;;;;;;10399752;28;20191;-76
2022/03/01 20:44:38;;;;;;;228.40;92.83;;;0.40;99.90;;;;;;10399101;28;20252;-76
2022/03/01 20:50:21;;;;;;;219.57;92.33;;;0.40;99.90;;;;;;10434460;28;20438;-75
2022/03/01 20:55:44;;;;;;;219.53;95.67;;;0.30;99.90;;;;;;10439818;28;20279;-75
2022/03/01 21:01:06;;;;;;;225.67;94.73;;;0.30;99.90;;;;;;10438746;28;20503;-78
2022/03/01 21:06:28;;;;;;;238.53;99.90;;;0.20;99.90;;;;;;10439885;28;20587;-78
2022/03/01 21:11:50;;;;;;;236.83;102.33;;;0.20;99.90;;;;;;10439478;28;20197;-76
2022/03/01 21:17:15;;;;;;;255.10;107.83;;;0.10;99.90;;;;;;10436738;28;20616;-78
2022/03/01 21:22:57;;;;;;;237.73;99.87;;;0.10;99.90;;;;;;10408558;28;20428;-77
2022/03/01 21:28:39;;;;;;;250.80;104.63;;;0.10;99.90;;;;;;10396940;28;20404;-76
2022/03/01 21:34:01;;;;;;;245.47;101.40;;;0.10;99.90;;;;;;10397446;28;20570;-77
2022/03/01 21:39:24;;;;;;;283.63;110.37;;;0.00;99.90;;;;;;10396215;28;20196;-76
2022/03/01 21:44:46;;;;;;;272.73;114.60;;;-0.10;99.90;;;;;;10396871;28;20194;-77
2022/03/01 21:50:09;;;;;;;284.83;113.23;;;-0.20;99.90;;;;;;10457238;28;20192;-76
2022/03/01 21:55:50;;;;;;;279.17;114.43;;;-0.40;99.90;;;;;;10437656;28;20282;-76
2022/03/01 22:01:13;;;;;;;275.63;113.37;;;-0.40;99.90;;;;;;10436797;28;20193;-81
2022/03/01 22:06:54;;;;;;;274.70;111.63;;;-0.30;99.90;;;;;;10437569;28;20208;-78
2022/03/01 22:12:18;;;;;;;267.83;109.83;;;-0.30;99.90;;;;;;10422496;28;20271;-81
2022/03/01 22:18:00;;;;;;;283.00;114.67;;;-0.50;99.90;;;;;;10427346;28;20207;-82
2022/03/01 22:23:23;;;;;;;287.20;113.93;;;-0.50;99.90;;;;;;10381329;28;20224;-78
2022/03/01 22:28:45;;;;;;;378.13;132.53;;;-0.50;99.90;;;;;;10381485;28;20205;-80
2022/03/01 22:34:07;;;;;;;423.33;145.50;;;-0.60;99.90;;;;;;10380954;28;20236;-77
2022/03/01 22:39:29;;;;;;;399.67;143.83;;;-0.70;99.90;;;;;;10380763;28;20200;-77
2022/03/01 22:44:51;;;;;;;420.70;146.30;;;-0.60;99.90;;;;;;10381000;28;20201;-78
2022/03/01 22:50:16;;;;;;;446.50;154.80;;;-0.70;99.90;;;;;;10420439;28;20235;-78
2022/03/01 22:55:39;;;;;;;444.10;156.23;;;-0.70;99.90;;;;;;10439196;28;20224;-77
2022/03/01 23:01:23;;;;;;;514.07;174.17;;;-0.80;99.90;;;;;;10444521;28;20272;-81
2022/03/01 23:12:45;;;;;;;420.70;156.23;;;-0.90;99.90;;;;;;10444183;28;20247;-79
2022/03/01 23:18:10;;;;;;;367.33;140.17;;;-0.90;99.90;;;;;;10432422;28;20250;-76
2022/03/01 23:23:51;;;;;;;315.87;127.03;;;-0.90;99.90;;;;;;10443505;28;20211;-77
2022/03/01 23:29:13;;;;;;;347.47;143.13;;;-0.90;99.90;;;;;;10404197;28;20205;-76
2022/03/01 23:34:37;;;;;;;330.97;138.87;;;-0.90;99.90;;;;;;10401992;28;20547;-75
2022/03/01 23:39:59;;;;;;;294.87;127.23;;;-1.00;99.90;;;;;;10401394;28;20192;-78
2022/03/01 23:45:20;;;;;;;248.40;104.67;;;-1.00;99.90;;;;;;10401101;28;20517;-75
2022/03/01 23:50:59;;;;;;;243.60;105.73;;;-1.00;99.90;;;;;;10419817;28;20220;-79
2022/03/01 23:56:40;;;;;;;238.57;106.23;;;-1.00;99.90;;;;;;10442370;28;20231;-77
